Time;durP1;ratioP1;P1;durP2;ratioP2;P2;SDS_P1;SDS_P2;PMS_P1;PMS_P2;Temp;Humidity;BMP_temperature;BMP_pressure;BME280_temperature;BME280_humidity;BME280_pressure;Samples;Min_cycle;Max_cycle;Signal;HPM_P1;HPM_P2
2023/04/17 00:01:14;;;;;;;15.30;13.07;;;9.40;99.90;;;;;;5052735;28;20469;-51
2023/04/17 00:03:41;;;;;;;19.20;14.93;;;8.90;99.90;;;;;;5052428;28;20405;-51
2023/04/17 00:06:08;;;;;;;16.03;13.37;;;9.10;99.90;;;;;;5052534;28;20410;-51
2023/04/17 00:08:36;;;;;;;17.13;13.90;;;9.10;99.90;;;;;;5052181;28;20553;-50
2023/04/17 00:11:02;;;;;;;17.40;15.53;;;9.20;99.90;;;;;;5052195;28;20604;-51
2023/04/17 00:13:29;;;;;;;17.60;13.80;;;9.00;99.90;;;;;;5052570;28;20409;-51
2023/04/17 00:15:56;;;;;;;16.23;14.07;;;9.20;99.90;;;;;;5052623;28;20435;-51
2023/04/17 00:18:23;;;;;;;15.93;13.37;;;9.30;99.90;;;;;;5051965;28;20431;-51
2023/04/17 00:20:49;;;;;;;17.33;13.87;;;9.30;99.90;;;;;;5052400;28;20467;-50
2023/04/17 00:23:16;;;;;;;17.83;15.50;;;9.50;99.90;;;;;;5052537;28;20424;-50
2023/04/17 00:25:44;;;;;;;15.13;13.60;;;9.50;99.90;;;;;;5052008;28;20553;-51
2023/04/17 00:28:10;;;;;;;20.23;14.43;;;9.30;99.90;;;;;;5051795;28;20452;-51
2023/04/17 00:30:37;;;;;;;15.87;13.43;;;9.20;99.90;;;;;;5052244;28;20450;-51
2023/04/17 00:33:04;;;;;;;15.83;13.80;;;8.90;99.90;;;;;;5052177;28;20443;-50
2023/04/17 00:35:30;;;;;;;16.07;14.37;;;9.10;99.90;;;;;;5052146;28;20521;-51
2023/04/17 00:37:57;;;;;;;17.53;14.50;;;9.00;99.90;;;;;;5052224;28;20481;-50
2023/04/17 00:40:24;;;;;;;18.93;14.80;;;8.80;99.90;;;;;;5050373;28;20459;-51
2023/04/17 00:42:55;;;;;;;14.90;13.40;;;9.20;99.90;;;;;;5052388;28;20835;-51
2023/04/17 00:45:21;;;;;;;15.17;13.57;;;9.00;99.90;;;;;;5050912;28;21000;-51
2023/04/17 00:47:49;;;;;;;16.10;13.60;;;9.10;99.90;;;;;;5050463;28;20441;-51
2023/04/17 00:50:16;;;;;;;16.70;14.90;;;8.90;99.90;;;;;;5051469;28;20450;-51
2023/04/17 00:52:44;;;;;;;20.10;15.07;;;8.40;99.90;;;;;;5051880;28;20819;-51
2023/04/17 00:55:11;;;;;;;18.97;15.07;;;8.30;99.90;;;;;;5051952;28;20487;-51
2023/04/17 00:57:37;;;;;;;14.97;13.47;;;9.20;99.90;;;;;;5050462;28;20542;-51
2023/04/17 01:00:08;;;;;;;17.73;14.60;;;8.90;99.90;;;;;;5051368;28;20444;-51
2023/04/17 01:02:36;;;;;;;17.70;14.30;;;8.80;99.90;;;;;;5050328;28;20435;-50
2023/04/17 01:05:03;;;;;;;17.77;14.20;;;9.30;99.90;;;;;;5051593;28;20435;-51
2023/04/17 01:07:30;;;;;;;16.87;15.00;;;8.90;99.90;;;;;;5050456;28;21017;-51
2023/04/17 01:09:57;;;;;;;17.40;14.63;;;9.20;99.90;;;;;;5049929;28;20466;-51
2023/04/17 01:12:25;;;;;;;19.90;15.47;;;9.00;99.90;;;;;;5051609;28;20875;-51
2023/04/17 01:14:52;;;;;;;18.80;13.43;;;8.40;99.90;;;;;;5050208;28;20524;-51
2023/04/17 01:17:20;;;;;;;15.60;13.93;;;8.20;99.90;;;;;;5050056;28;20425;-51
2023/04/17 01:19:48;;;;;;;17.33;14.10;;;9.30;99.90;;;;;;5049743;28;20452;-52
2023/04/17 01:22:16;;;;;;;19.77;14.87;;;9.20;99.90;;;;;;5050238;28;20447;-51
2023/04/17 01:24:44;;;;;;;17.30;14.70;;;8.80;99.90;;;;;;5050178;28;20444;-51
2023/04/17 01:27:12;;;;;;;19.23;14.93;;;8.80;99.90;;;;;;5050064;28;20489;-51
2023/04/17 01:29:41;;;;;;;21.20;14.77;;;8.50;99.90;;;;;;5049685;28;20466;-50
2023/04/17 01:32:09;;;;;;;21.40;14.73;;;8.80;99.90;;;;;;5050056;28;20463;-50
2023/04/17 01:34:36;;;;;;;16.87;14.20;;;8.90;99.90;;;;;;5050114;28;20508;-50
2023/04/17 01:37:02;;;;;;;17.30;15.40;;;8.70;99.90;;;;;;5051741;28;20439;-49
2023/04/17 01:39:29;;;;;;;18.90;14.43;;;8.90;99.90;;;;;;5054592;28;20462;-51
2023/04/17 01:41:58;;;;;;;17.70;14.57;;;8.70;99.90;;;;;;5053788;28;20536;-50
2023/04/17 01:44:25;;;;;;;19.73;15.60;;;9.10;99.90;;;;;;5054952;28;20434;-49
2023/04/17 01:46:52;;;;;;;18.10;14.30;;;8.90;99.90;;;;;;5054774;28;20423;-50
2023/04/17 01:49:19;;;;;;;18.93;15.30;;;8.40;99.90;;;;;;5054446;28;20454;-50
2023/04/17 01:51:46;;;;;;;21.27;16.50;;;8.40;99.90;;;;;;5054748;28;20848;-50
2023/04/17 01:54:14;;;;;;;18.33;15.30;;;8.20;99.90;;;;;;5053624;28;20850;-49
2023/04/17 01:56:41;;;;;;;17.97;14.90;;;8.50;99.90;;;;;;5054691;28;20434;-50
2023/04/17 01:59:09;;;;;;;19.50;15.43;;;8.40;99.90;;;;;;5052718;28;20464;-50
2023/04/17 02:01:36;;;;;;;17.27;14.70;;;8.30;99.90;;;;;;5053838;28;20453;-50
2023/04/17 02:04:02;;;;;;;17.63;14.30;;;8.40;99.90;;;;;;5054645;28;20442;-50
2023/04/17 02:06:30;;;;;;;17.40;14.83;;;8.70;99.90;;;;;;5054756;28;20412;-50
2023/04/17 02:08:57;;;;;;;19.53;15.70;;;8.30;99.90;;;;;;5052837;28;20914;-51
2023/04/17 02:11:25;;;;;;;18.17;14.97;;;8.10;99.90;;;;;;5054586;28;20446;-50
2023/04/17 02:13:52;;;;;;;17.40;15.30;;;8.40;99.90;;;;;;5053167;28;20854;-50
2023/04/17 02:16:20;;;;;;;15.90;13.43;;;8.20;99.90;;;;;;5053042;28;20425;-51
2023/04/17 02:18:47;;;;;;;21.20;17.00;;;7.80;99.90;;;;;;5052785;28;20424;-50
2023/04/17 02:21:14;;;;;;;19.50;15.60;;;8.30;99.90;;;;;;5052925;28;20467;-51
2023/04/17 02:23:40;;;;;;;22.27;15.30;;;8.20;99.90;;;;;;5054301;28;20409;-50
2023/04/17 02:26:07;;;;;;;17.97;15.10;;;8.00;99.90;;;;;;5053019;28;20434;-50
2023/04/17 02:28:34;;;;;;;18.90;15.57;;;8.30;99.90;;;;;;5053745;28;20466;-50
2023/04/17 02:31:02;;;;;;;18.30;14.50;;;8.00;99.90;;;;;;5052608;28;20454;-49
2023/04/17 02:33:31;;;;;;;19.33;15.30;;;8.10;99.90;;;;;;5052866;28;20425;-50
2023/04/17 02:35:58;;;;;;;18.27;16.07;;;7.90;99.90;;;;;;5052647;28;20440;-50
2023/04/17 02:38:32;;;;;;;20.60;16.43;;;8.00;99.90;;;;;;5052340;28;20521;-50
2023/04/17 02:40:59;;;;;;;18.90;15.43;;;8.00;99.90;;;;;;5052571;28;20484;-50
2023/04/17 02:43:28;;;;;;;18.30;16.33;;;7.90;99.90;;;;;;5052754;28;20436;-51
2023/04/17 02:45:55;;;;;;;21.10;15.50;;;7.90;99.90;;;;;;5052636;28;20454;-50
2023/04/17 02:48:22;;;;;;;19.50;15.77;;;8.20;99.90;;;;;;5052087;28;20482;-50
2023/04/17 02:50:50;;;;;;;19.10;15.67;;;7.90;99.90;;;;;;5052588;28;20834;-50
2023/04/17 02:53:19;;;;;;;20.80;17.07;;;8.10;99.90;;;;;;5052807;28;20423;-50
2023/04/17 02:55:47;;;;;;;18.07;16.07;;;8.00;99.90;;;;;;5052667;28;20420;-50
2023/04/17 02:58:15;;;;;;;19.90;16.83;;;8.20;99.90;;;;;;5052363;28;20514;-51
2023/04/17 03:00:42;;;;;;;16.80;15.07;;;7.70;99.90;;;;;;5052057;28;20521;-51
2023/04/17 03:03:14;;;;;;;17.17;15.37;;;7.90;99.90;;;;;;5052356;28;20420;-50
2023/04/17 03:05:40;;;;;;;18.27;15.67;;;7.80;99.90;;;;;;5052385;28;20428;-51
2023/04/17 03:08:08;;;;;;;17.53;15.63;;;7.80;99.90;;;;;;5053068;28;20458;-51
2023/04/17 03:10:44;;;;;;;26.73;16.20;;;7.90;99.90;;;;;;5052223;28;20444;-50
2023/04/17 03:13:10;;;;;;;17.63;14.80;;;7.60;99.90;;;;;;5051987;28;20436;-50
2023/04/17 03:15:37;;;;;;;17.30;14.60;;;7.90;99.90;;;;;;5051954;28;20424;-51
2023/04/17 03:18:04;;;;;;;20.30;16.97;;;7.80;99.90;;;;;;5051835;28;21020;-51
2023/04/17 03:20:30;;;;;;;19.60;16.27;;;7.70;99.90;;;;;;5051700;28;20454;-52
2023/04/17 03:22:57;;;;;;;21.07;16.20;;;7.80;99.90;;;;;;5051849;28;20842;-49
2023/04/17 03:25:25;;;;;;;21.50;16.40;;;7.50;99.90;;;;;;5053044;28;20433;-51
2023/04/17 03:27:52;;;;;;;20.63;16.33;;;7.60;99.90;;;;;;5052971;28;20433;-51
2023/04/17 03:30:21;;;;;;;21.93;17.33;;;7.80;99.90;;;;;;5051193;28;20980;-51
2023/04/17 03:32:50;;;;;;;19.63;16.63;;;7.40;99.90;;;;;;5051660;28;20446;-51
2023/04/17 03:35:17;;;;;;;18.30;15.67;;;7.70;99.90;;;;;;5053058;28;20401;-50
2023/04/17 03:37:44;;;;;;;17.40;15.53;;;7.40;99.90;;;;;;5051820;28;20552;-49
2023/04/17 03:40:12;;;;;;;20.57;17.53;;;7.30;99.90;;;;;;5050842;28;20442;-51
2023/04/17 03:42:40;;;;;;;19.73;17.63;;;7.70;99.90;;;;;;5051351;28;20967;-51
2023/04/17 03:45:10;;;;;;;23.27;16.67;;;7.40;99.90;;;;;;5051188;28;20453;-51
2023/04/17 03:47:36;;;;;;;20.03;17.30;;;7.50;99.90;;;;;;5051261;28;20423;-49
2023/04/17 03:50:03;;;;;;;18.90;16.93;;;7.50;99.90;;;;;;5050747;28;20577;-50
2023/04/17 03:52:35;;;;;;;21.70;19.23;;;7.30;99.90;;;;;;5051212;28;20457;-50
2023/04/17 03:55:04;;;;;;;29.63;19.40;;;7.60;99.90;;;;;;5051146;28;20454;-50
2023/04/17 03:57:31;;;;;;;21.73;18.17;;;7.40;99.90;;;;;;5051183;28;20961;-50
2023/04/17 03:59:59;;;;;;;26.30;18.33;;;7.90;99.90;;;;;;5049813;28;20539;-51
2023/04/17 04:02:30;;;;;;;21.67;17.23;;;7.50;99.90;;;;;;5050970;28;20841;-51
2023/04/17 04:04:56;;;;;;;23.70;17.50;;;7.90;99.90;;;;;;5050854;28;20428;-51
2023/04/17 04:07:23;;;;;;;27.63;18.03;;;7.20;99.90;;;;;;5050986;28;20452;-51
2023/04/17 04:09:50;;;;;;;25.83;18.43;;;7.70;99.90;;;;;;5050585;28;20489;-51
2023/04/17 04:12:18;;;;;;;26.17;18.50;;;7.70;99.90;;;;;;5050900;28;20417;-51
2023/04/17 04:14:45;;;;;;;21.80;19.20;;;8.00;99.90;;;;;;5050868;28;20980;-52
2023/04/17 04:17:15;;;;;;;23.90;18.97;;;7.80;99.90;;;;;;5051048;28;20453;-51
2023/04/17 04:19:43;;;;;;;23.37;18.30;;;7.60;99.90;;;;;;5052154;28;20449;-52
2023/04/17 04:22:12;;;;;;;35.73;19.50;;;7.30;99.90;;;;;;5050747;28;20503;-50
2023/04/17 04:24:45;;;;;;;24.33;20.27;;;7.50;99.90;;;;;;5050838;28;20532;-49
2023/04/17 04:27:16;;;;;;;27.50;19.97;;;7.50;99.90;;;;;;5051065;28;20504;-50
2023/04/17 04:29:47;;;;;;;26.03;19.37;;;7.10;99.90;;;;;;5050512;28;20961;-51
2023/04/17 04:32:16;;;;;;;24.47;19.77;;;7.60;99.90;;;;;;5050717;28;20409;-51
2023/04/17 04:34:45;;;;;;;28.47;18.70;;;7.50;99.90;;;;;;5050880;28;20951;-50
2023/04/17 04:37:14;;;;;;;25.20;20.20;;;7.30;99.90;;;;;;5051987;28;20431;-49
2023/04/17 04:39:43;;;;;;;27.67;19.67;;;7.60;99.90;;;;;;5050159;28;20948;-50
2023/04/17 04:42:20;;;;;;;27.60;20.73;;;7.80;99.90;;;;;;5050651;28;20485;-49
2023/04/17 04:45:10;;;;;;;27.73;19.83;;;7.10;99.90;;;;;;5050677;28;20779;-51
2023/04/17 04:47:38;;;;;;;29.10;19.83;;;7.60;99.90;;;;;;5050376;28;20417;-50
2023/04/17 04:50:05;;;;;;;28.03;21.80;;;8.00;99.90;;;;;;5051599;28;20829;-50
2023/04/17 04:52:32;;;;;;;24.63;20.20;;;7.50;99.90;;;;;;5052266;28;20922;-50
2023/04/17 04:55:04;;;;;;;26.30;20.87;;;7.50;99.90;;;;;;5052283;28;20434;-51
2023/04/17 04:57:33;;;;;;;25.40;21.87;;;7.70;99.90;;;;;;5053326;28;20484;-50
2023/04/17 05:00:02;;;;;;;23.80;20.27;;;7.70;99.90;;;;;;5053400;28;20515;-50
2023/04/17 05:02:34;;;;;;;27.70;19.97;;;7.70;99.90;;;;;;5055941;28;20412;-50
2023/04/17 05:05:04;;;;;;;25.43;21.93;;;7.70;99.90;;;;;;5051242;28;20457;-51
2023/04/17 05:07:33;;;;;;;25.17;21.53;;;7.60;99.90;;;;;;5051561;28;20490;-50
2023/04/17 05:10:00;;;;;;;27.27;21.60;;;7.80;99.90;;;;;;5051698;28;20486;-51
2023/04/17 05:12:31;;;;;;;28.90;23.90;;;7.70;99.90;;;;;;5052987;28;20948;-51
2023/04/17 05:14:58;;;;;;;27.30;22.80;;;7.40;99.90;;;;;;5056857;28;20458;-51
2023/04/17 05:17:25;;;;;;;31.30;22.73;;;8.10;99.90;;;;;;5054743;28;20424;-51
2023/04/17 05:19:53;;;;;;;28.90;22.70;;;7.80;99.90;;;;;;5053509;28;20441;-50
2023/04/17 05:22:22;;;;;;;28.27;24.10;;;7.70;99.90;;;;;;5054212;28;20456;-52
2023/04/17 05:25:01;;;;;;;32.30;25.47;;;8.00;99.90;;;;;;5054067;28;20435;-52
2023/04/17 05:27:28;;;;;;;33.87;23.87;;;8.00;99.90;;;;;;5053765;28;20456;-51
2023/04/17 05:29:55;;;;;;;31.27;24.80;;;7.80;99.90;;;;;;5053054;28;20493;-50
2023/04/17 05:32:22;;;;;;;35.40;26.67;;;7.80;99.90;;;;;;5054031;28;20431;-51
2023/04/17 05:34:59;;;;;;;31.53;24.83;;;7.80;99.90;;;;;;5053810;28;20825;-52
2023/04/17 05:37:28;;;;;;;34.63;26.20;;;8.10;99.90;;;;;;5053421;28;20989;-52
2023/04/17 05:39:55;;;;;;;34.23;26.60;;;7.90;99.90;;;;;;5052949;28;20453;-51
2023/04/17 05:42:22;;;;;;;32.10;25.63;;;8.00;99.90;;;;;;5053435;28;20412;-51
2023/04/17 05:44:49;;;;;;;32.50;25.57;;;8.30;99.90;;;;;;5054542;28;20428;-52
2023/04/17 05:47:15;;;;;;;29.77;23.60;;;7.80;99.90;;;;;;5052669;28;20891;-52
2023/04/17 05:49:42;;;;;;;30.50;24.80;;;8.20;99.90;;;;;;5054988;28;20501;-51
2023/04/17 05:52:09;;;;;;;34.63;27.27;;;8.00;99.90;;;;;;5052837;28;20539;-51
2023/04/17 05:54:42;;;;;;;31.47;26.30;;;7.90;99.90;;;;;;5053090;28;21028;-51
2023/04/17 05:57:09;;;;;;;34.47;26.10;;;7.80;99.90;;;;;;5052798;28;20973;-50
2023/04/17 05:59:36;;;;;;;37.33;26.20;;;7.70;99.90;;;;;;5052547;28;20552;-50
2023/04/17 06:02:03;;;;;;;34.10;26.70;;;8.10;99.90;;;;;;5053543;28;20463;-52
2023/04/17 06:04:33;;;;;;;34.83;28.37;;;7.90;99.90;;;;;;5053001;28;20445;-52
2023/04/17 06:07:01;;;;;;;35.57;28.90;;;7.90;99.90;;;;;;5052852;28;20812;-52
2023/04/17 06:09:28;;;;;;;32.10;26.37;;;8.10;99.90;;;;;;5052226;28;20482;-50
2023/04/17 06:11:56;;;;;;;32.13;26.93;;;7.70;99.90;;;;;;5054008;28;20747;-50
2023/04/17 06:14:22;;;;;;;32.53;27.10;;;7.70;99.90;;;;;;5052606;28;20541;-51
2023/04/17 06:16:50;;;;;;;32.40;27.57;;;7.70;99.90;;;;;;5052687;28;20478;-52
2023/04/17 06:19:17;;;;;;;33.47;26.90;;;7.60;99.90;;;;;;5052502;28;20505;-50
2023/04/17 06:21:44;;;;;;;36.00;27.00;;;7.70;99.90;;;;;;5054039;28;20765;-51
2023/04/17 06:24:11;;;;;;;33.87;27.20;;;7.70;99.90;;;;;;5054171;28;20438;-50
2023/04/17 06:26:43;;;;;;;37.60;28.17;;;7.80;99.90;;;;;;5053300;28;20439;-51
2023/04/17 06:29:12;;;;;;;34.30;28.30;;;7.70;99.90;;;;;;5052405;28;20439;-51
2023/04/17 06:31:39;;;;;;;38.67;27.27;;;7.90;99.90;;;;;;5052701;28;20478;-51
2023/04/17 06:34:06;;;;;;;34.70;27.07;;;7.90;99.90;;;;;;5052154;28;20421;-52
2023/04/17 06:36:38;;;;;;;33.73;26.70;;;8.10;99.90;;;;;;5053177;28;20418;-50
2023/04/17 06:39:05;;;;;;;32.93;27.67;;;8.10;99.90;;;;;;5051467;28;20944;-53
2023/04/17 06:41:32;;;;;;;33.97;28.10;;;8.00;99.90;;;;;;5052178;28;20423;-51
2023/04/17 06:44:00;;;;;;;33.70;26.00;;;8.20;99.90;;;;;;5052269;28;20421;-52
2023/04/17 06:46:44;;;;;;;40.17;27.40;;;8.00;99.90;;;;;;5051942;28;20491;-51
2023/04/17 06:49:10;;;;;;;33.70;26.90;;;8.20;99.90;;;;;;5051670;28;20953;-51
2023/04/17 06:51:37;;;;;;;35.43;26.47;;;7.60;99.90;;;;;;5052156;28;20520;-50
2023/04/17 06:54:04;;;;;;;28.73;23.93;;;8.40;99.90;;;;;;5053042;28;20438;-51
2023/04/17 06:56:30;;;;;;;35.07;25.10;;;8.10;99.90;;;;;;5051936;28;20420;-51
2023/04/17 06:58:57;;;;;;;35.60;26.60;;;8.00;99.90;;;;;;5052605;28;20743;-52
2023/04/17 07:01:24;;;;;;;32.53;23.90;;;8.60;99.90;;;;;;5052523;28;20473;-50
2023/04/17 07:03:52;;;;;;;34.70;23.43;;;8.60;99.90;;;;;;5052387;28;21093;-51
2023/04/17 07:06:18;;;;;;;31.57;23.87;;;8.50;99.90;;;;;;5052774;28;20766;-51
2023/04/17 07:08:45;;;;;;;29.50;23.07;;;8.30;99.90;;;;;;5053082;28;20749;-51
2023/04/17 07:11:11;;;;;;;34.67;24.10;;;8.60;99.90;;;;;;5053282;28;20511;-51
2023/04/17 07:13:38;;;;;;;29.77;23.60;;;8.60;99.90;;;;;;5053483;28;20451;-51
2023/04/17 07:16:05;;;;;;;34.27;24.70;;;8.70;99.90;;;;;;5052683;28;20420;-52
2023/04/17 07:18:32;;;;;;;26.37;22.93;;;8.60;99.90;;;;;;5052464;28;20856;-51
2023/04/17 07:21:00;;;;;;;29.40;25.20;;;8.40;99.90;;;;;;5052761;28;20492;-52
2023/04/17 07:23:27;;;;;;;30.63;24.63;;;8.90;99.90;;;;;;5053088;28;20466;-50
2023/04/17 07:25:54;;;;;;;30.70;23.53;;;8.30;99.90;;;;;;5053020;28;20439;-51
2023/04/17 07:28:20;;;;;;;31.10;24.37;;;9.10;99.90;;;;;;5052494;28;20427;-51
2023/04/17 07:30:47;;;;;;;30.20;24.80;;;8.40;99.90;;;;;;5052882;28;20536;-52
2023/04/17 07:33:14;;;;;;;31.63;24.17;;;8.20;99.90;;;;;;5052663;28;20416;-52
2023/04/17 07:35:41;;;;;;;33.13;24.80;;;8.70;99.90;;;;;;5051463;28;20447;-52
2023/04/17 07:38:09;;;;;;;30.20;24.07;;;9.00;99.90;;;;;;5052227;28;20437;-52
2023/04/17 07:40:37;;;;;;;31.20;23.77;;;8.40;99.90;;;;;;5052626;28;20458;-52
2023/04/17 07:43:03;;;;;;;27.83;23.17;;;8.60;99.90;;;;;;5052203;28;20401;-52
2023/04/17 07:45:30;;;;;;;26.87;21.30;;;8.60;99.90;;;;;;5051874;28;20459;-51
2023/04/17 07:47:56;;;;;;;28.23;22.60;;;8.60;99.90;;;;;;5052487;28;20413;-51
2023/04/17 07:50:23;;;;;;;27.80;22.87;;;8.90;99.90;;;;;;5051808;28;20486;-52
2023/04/17 07:52:50;;;;;;;27.13;20.80;;;9.20;99.90;;;;;;5052508;28;20427;-52
2023/04/17 07:55:18;;;;;;;31.20;21.63;;;8.60;99.90;;;;;;5052248;28;20944;-51
2023/04/17 07:57:45;;;;;;;28.30;23.00;;;8.90;99.90;;;;;;5051059;28;20455;-52
2023/04/17 08:00:13;;;;;;;28.30;23.77;;;8.90;99.90;;;;;;5037210;28;20840;-53
2023/04/17 08:02:40;;;;;;;27.60;23.83;;;9.10;99.90;;;;;;5032809;28;20729;-53
2023/04/17 08:05:08;;;;;;;27.50;24.53;;;9.00;99.90;;;;;;5032200;28;20559;-52
2023/04/17 08:07:34;;;;;;;29.87;25.10;;;9.10;99.90;;;;;;5032714;28;20542;-51
2023/04/17 08:10:01;;;;;;;35.10;25.50;;;8.60;99.90;;;;;;5030247;28;20552;-51
2023/04/17 08:12:29;;;;;;;28.33;23.83;;;9.20;99.90;;;;;;5034620;28;20449;-52
2023/04/17 08:14:56;;;;;;;34.20;25.13;;;8.70;99.90;;;;;;5052392;28;20463;-52
2023/04/17 08:17:24;;;;;;;27.70;23.90;;;9.30;99.90;;;;;;5055070;28;20438;-52
2023/04/17 08:19:52;;;;;;;29.70;23.77;;;9.40;99.90;;;;;;5053305;28;20831;-51
2023/04/17 08:22:20;;;;;;;29.57;25.23;;;9.80;99.90;;;;;;5052001;28;20906;-52
2023/04/17 08:24:47;;;;;;;28.50;23.57;;;9.50;99.90;;;;;;5052780;28;20408;-52
2023/04/17 08:27:14;;;;;;;31.83;23.67;;;10.10;99.90;;;;;;5052093;28;20447;-53
2023/04/17 08:29:43;;;;;;;28.03;23.73;;;9.60;99.90;;;;;;5050200;28;20940;-51
2023/04/17 08:32:10;;;;;;;27.10;22.67;;;9.70;99.90;;;;;;5045989;28;20511;-53
2023/04/17 08:34:37;;;;;;;25.83;21.60;;;9.80;99.90;;;;;;5032349;28;20431;-53
2023/04/17 08:37:04;;;;;;;26.30;23.03;;;10.00;99.90;;;;;;5032286;28;20447;-53
2023/04/17 08:39:30;;;;;;;21.87;18.70;;;10.40;99.90;;;;;;5032104;28;20463;-52
2023/04/17 08:42:00;;;;;;;30.67;20.03;;;10.50;99.90;;;;;;5031835;28;20436;-52
2023/04/17 08:44:27;;;;;;;28.23;20.87;;;9.80;99.90;;;;;;5032835;28;20428;-52
2023/04/17 08:46:57;;;;;;;24.93;22.23;;;10.60;99.90;;;;;;5044328;28;20582;-52
2023/04/17 08:49:27;;;;;;;25.63;22.60;;;9.70;99.90;;;;;;5057123;28;20431;-52
2023/04/17 08:51:54;;;;;;;32.50;24.80;;;10.50;99.90;;;;;;5056138;28;20441;-53
2023/04/17 08:54:21;;;;;;;28.77;22.80;;;10.50;99.90;;;;;;5040350;28;20456;-55
2023/04/17 08:56:47;;;;;;;25.60;21.77;;;10.50;99.90;;;;;;5035871;28;20437;-53
2023/04/17 08:59:15;;;;;;;29.87;21.60;;;10.20;99.90;;;;;;5045872;28;20948;-53
2023/04/17 09:02:02;;;;;;;27.47;21.33;;;10.60;99.90;;;;;;5051313;28;20407;-53
2023/04/17 09:04:39;;;;;;;26.87;21.93;;;10.30;99.90;;;;;;5049242;28;20475;-52
2023/04/17 09:07:06;;;;;;;31.80;20.97;;;10.20;99.90;;;;;;5049478;28;20856;-53
2023/04/17 09:09:50;;;;;;;26.03;22.77;;;10.40;99.90;;;;;;5051862;28;20456;-53
2023/04/17 09:12:17;;;;;;;26.47;21.07;;;10.00;99.90;;;;;;5055094;28;20405;-53
2023/04/17 09:14:44;;;;;;;24.63;20.53;;;9.90;99.90;;;;;;5053855;28;20443;-53
2023/04/17 09:17:12;;;;;;;27.30;20.37;;;9.80;99.90;;;;;;5040515;28;20929;-55
2023/04/17 09:20:00;;;;;;;22.10;19.43;;;10.50;99.90;;;;;;5054864;28;20438;-55
2023/04/17 09:22:26;;;;;;;25.03;21.00;;;10.50;99.90;;;;;;5039781;28;20431;-54
2023/04/17 09:24:53;;;;;;;26.10;20.00;;;10.30;99.90;;;;;;5035225;28;20422;-54
2023/04/17 09:27:21;;;;;;;22.60;19.03;;;10.60;99.90;;;;;;5034858;28;20848;-54
2023/04/17 09:30:01;;;;;;;30.70;19.60;;;10.30;99.90;;;;;;5034570;28;20864;-53
2023/04/17 09:32:30;;;;;;;20.17;16.07;;;10.10;99.90;;;;;;5034557;28;20530;-54
2023/04/17 09:34:58;;;;;;;24.13;17.10;;;10.60;99.90;;;;;;5034929;28;20431;-54
2023/04/17 09:37:26;;;;;;;19.63;15.63;;;10.60;99.90;;;;;;5049657;28;20547;-52
2023/04/17 09:40:00;;;;;;;17.70;15.80;;;11.00;99.90;;;;;;5034362;28;20452;-53
2023/04/17 09:42:27;;;;;;;15.77;14.17;;;10.30;99.90;;;;;;5033210;28;20446;-52
2023/04/17 09:44:54;;;;;;;17.40;15.53;;;11.30;99.90;;;;;;5049946;28;20414;-55
2023/04/17 09:47:22;;;;;;;16.50;14.90;;;10.80;99.90;;;;;;5054640;28;20441;-51
2023/04/17 09:49:52;;;;;;;17.67;15.63;;;11.00;99.90;;;;;;5054095;28;20797;-53
2023/04/17 09:52:22;;;;;;;18.30;16.30;;;11.50;99.90;;;;;;5055458;28;20432;-54
2023/04/17 09:54:50;;;;;;;18.60;15.50;;;11.20;99.90;;;;;;5054728;28;20540;-54
2023/04/17 09:57:17;;;;;;;17.87;15.97;;;11.00;99.90;;;;;;5054079;28;20872;-53
2023/04/17 09:59:47;;;;;;;17.93;15.40;;;11.30;99.90;;;;;;5052507;28;21090;-51
2023/04/17 10:02:16;;;;;;;18.10;16.30;;;11.20;99.90;;;;;;5054439;28;20435;-52
2023/04/17 10:04:44;;;;;;;18.97;17.00;;;11.00;99.90;;;;;;5054702;28;20436;-53
2023/04/17 10:07:13;;;;;;;18.63;16.03;;;11.20;99.90;;;;;;5054581;28;20778;-51
2023/04/17 10:09:41;;;;;;;18.97;16.97;;;11.20;99.90;;;;;;5054422;28;20455;-52
2023/04/17 10:12:13;;;;;;;18.43;16.53;;;11.30;99.90;;;;;;5054429;28;20491;-53
2023/04/17 10:14:43;;;;;;;19.30;16.83;;;11.40;99.90;;;;;;5052816;28;20443;-51
2023/04/17 10:17:27;;;;;;;16.97;15.20;;;11.80;99.90;;;;;;5051458;28;20206;-51
2023/04/17 10:19:55;;;;;;;19.80;17.27;;;11.60;99.90;;;;;;5053719;28;20493;-51
2023/04/17 10:22:33;;;;;;;17.73;15.43;;;11.00;99.90;;;;;;5053902;28;20902;-53
2023/04/17 10:25:19;;;;;;;17.03;15.10;;;12.00;99.90;;;;;;5054203;28;20432;-51
2023/04/17 10:27:50;;;;;;;22.00;17.63;;;11.50;99.90;;;;;;5053886;28;20426;-52
2023/04/17 10:30:18;;;;;;;17.47;15.13;;;11.50;99.90;;;;;;5053730;28;20978;-52
2023/04/17 10:32:46;;;;;;;17.10;14.33;;;11.50;99.90;;;;;;5054600;28;20418;-52
2023/04/17 10:35:35;;;;;;;20.60;15.63;;;11.40;99.90;;;;;;5053114;28;20473;-51
2023/04/17 10:38:05;;;;;;;21.33;16.33;;;11.20;99.90;;;;;;5053784;28;20540;-50
2023/04/17 10:40:33;;;;;;;20.00;16.00;;;11.30;99.90;;;;;;5052088;28;21006;-51
2023/04/17 10:43:19;;;;;;;20.00;16.10;;;11.20;99.90;;;;;;5052021;28;20449;-51
2023/04/17 10:45:57;;;;;;;17.23;14.60;;;11.60;99.90;;;;;;5050851;28;20448;-53
2023/04/17 10:48:28;;;;;;;18.60;14.63;;;11.50;99.90;;;;;;5048560;28;20458;-52
2023/04/17 10:50:55;;;;;;;19.60;17.07;;;11.80;99.90;;;;;;5052633;28;20529;-51
2023/04/17 10:53:40;;;;;;;14.73;13.23;;;11.60;99.90;;;;;;5052356;28;20956;-52
2023/04/17 10:56:07;;;;;;;21.43;15.10;;;11.70;99.90;;;;;;5053260;28;20425;-50
2023/04/17 10:58:37;;;;;;;16.50;14.47;;;11.70;99.90;;;;;;5053217;28;20409;-51
2023/04/17 11:01:10;;;;;;;16.83;12.90;;;11.80;99.90;;;;;;5051303;28;20546;-57
2023/04/17 11:03:37;;;;;;;19.45;16.67;;;11.70;99.90;;;;;;5052387;28;20427;-53
2023/04/17 11:06:05;;;;;;;17.50;15.70;;;12.30;99.90;;;;;;5053638;28;20197;-51
2023/04/17 11:08:31;;;;;;;17.90;15.03;;;12.10;99.90;;;;;;5052159;28;20436;-53
2023/04/17 11:10:59;;;;;;;17.53;14.40;;;11.70;99.90;;;;;;5052757;28;20477;-51
2023/04/17 11:13:31;;;;;;;20.07;15.20;;;12.20;99.70;;;;;;5052992;28;20447;-52
2023/04/17 11:15:57;;;;;;;16.03;14.33;;;11.70;99.40;;;;;;5053285;28;20455;-52
2023/04/17 11:18:25;;;;;;;16.40;14.20;;;12.20;99.60;;;;;;5052446;28;20440;-52
2023/04/17 11:20:52;;;;;;;19.60;13.80;;;12.50;99.80;;;;;;5052660;28;20459;-52
2023/04/17 11:23:19;;;;;;;15.47;13.73;;;12.40;99.90;;;;;;5048855;28;20468;-50
2023/04/17 11:25:46;;;;;;;16.10;13.80;;;12.60;99.90;;;;;;5052997;28;20439;-50
2023/04/17 11:28:14;;;;;;;18.30;15.23;;;12.30;99.70;;;;;;5053132;28;20431;-52
2023/04/17 11:30:43;;;;;;;17.57;14.73;;;11.90;99.50;;;;;;5052730;28;20810;-52
2023/04/17 11:33:11;;;;;;;17.73;13.90;;;12.90;99.90;;;;;;5053311;28;20445;-52
2023/04/17 11:35:40;;;;;;;18.70;16.13;;;12.70;99.90;;;;;;5053071;28;20491;-52
2023/04/17 11:38:12;;;;;;;16.93;12.03;;;12.50;99.90;;;;;;5050915;28;20827;-50
2023/04/17 11:40:46;;;;;;;19.17;14.43;;;12.30;99.00;;;;;;5049134;28;20550;-52
2023/04/17 11:43:15;;;;;;;20.17;14.17;;;12.80;99.10;;;;;;5049486;28;20571;-53
2023/04/17 11:45:43;;;;;;;18.33;15.90;;;12.90;98.80;;;;;;5051339;28;20833;-55
2023/04/17 11:48:12;;;;;;;18.50;15.33;;;12.90;99.00;;;;;;5052643;28;20451;-53
2023/04/17 11:50:40;;;;;;;17.53;14.37;;;12.50;99.00;;;;;;5052843;28;20981;-52
2023/04/17 11:53:07;;;;;;;16.87;15.07;;;12.70;99.10;;;;;;5052567;28;20944;-52
2023/04/17 11:55:34;;;;;;;22.30;15.40;;;12.70;99.40;;;;;;5052175;28;20438;-52
2023/04/17 11:58:03;;;;;;;22.00;16.57;;;13.10;99.50;;;;;;5052878;28;20933;-53
2023/04/17 12:00:32;;;;;;;21.53;15.50;;;12.30;99.00;;;;;;5052315;28;20541;-53
2023/04/17 12:03:01;;;;;;;18.37;15.90;;;12.80;99.10;;;;;;5052445;28;20800;-52
2023/04/17 12:05:29;;;;;;;16.17;14.00;;;12.80;99.40;;;;;;5053409;28;20441;-52
2023/04/17 12:08:03;;;;;;;16.33;14.73;;;13.00;99.70;;;;;;5051953;28;20438;-51
2023/04/17 12:10:41;;;;;;;23.17;15.27;;;12.40;99.70;;;;;;5038303;28;20465;-53
2023/04/17 12:13:08;;;;;;;17.93;15.10;;;12.50;99.90;;;;;;5042370;28;20442;-52
2023/04/17 12:15:36;;;;;;;22.50;17.07;;;12.70;99.90;;;;;;5049379;28;20530;-53
2023/04/17 12:18:05;;;;;;;19.80;16.00;;;12.60;99.90;;;;;;5049504;28;20981;-54
2023/04/17 12:20:33;;;;;;;16.30;14.40;;;12.70;99.90;;;;;;5048456;28;20508;-52
2023/04/17 12:23:00;;;;;;;23.00;16.40;;;12.00;99.90;;;;;;5043051;28;20437;-52
2023/04/17 12:25:27;;;;;;;18.03;14.80;;;12.00;99.90;;;;;;5041460;28;20438;-52
2023/04/17 12:27:55;;;;;;;17.93;15.03;;;12.40;99.90;;;;;;5049114;28;20492;-52
2023/04/17 12:30:22;;;;;;;20.70;16.00;;;12.10;99.90;;;;;;5050182;28;20442;-53
2023/04/17 12:32:51;;;;;;;18.43;15.60;;;11.70;99.90;;;;;;5035266;28;20453;-53
2023/04/17 12:35:18;;;;;;;17.23;14.83;;;11.60;99.90;;;;;;5051921;28;20428;-52
2023/04/17 12:37:47;;;;;;;17.53;14.73;;;11.80;99.90;;;;;;5051849;28;20426;-52
2023/04/17 12:40:15;;;;;;;15.23;13.73;;;11.60;99.90;;;;;;5036638;28;20855;-53